createdAt,value
2023-05-02T00:00:11.674Z,100414.72
2023-05-02T00:02:40.061Z,100425.44
2023-05-02T00:05:08.954Z,100426.44
2023-05-02T00:07:37.607Z,100420.06
2023-05-02T00:10:08.357Z,100427.38
2023-05-02T00:12:36.403Z,100430.78
2023-05-02T00:15:05.329Z,100434.47
2023-05-02T00:17:33.589Z,100446.00
2023-05-02T00:20:02.030Z,100445.19
2023-05-02T00:22:30.431Z,100434.47
2023-05-02T00:24:58.847Z,100445.19
2023-05-02T00:27:28.351Z,100450.53
2023-05-02T00:29:56.451Z,100446.84
2023-05-02T00:32:24.597Z,100455.88
2023-05-02T00:34:52.697Z,100461.25
2023-05-02T00:37:21.389Z,100471.97
2023-05-02T00:39:49.530Z,100466.59
2023-05-02T00:42:17.661Z,100466.59
2023-05-02T00:44:47.185Z,100475.59
2023-05-02T00:47:16.149Z,100481.69
2023-05-02T00:49:44.303Z,100477.31
2023-05-02T00:52:12.427Z,100486.19
2023-05-02T00:54:40.814Z,100482.69
2023-05-02T00:57:08.958Z,100491.66
2023-05-02T00:59:37.844Z,100492.38
2023-05-02T01:02:19.541Z,100498.75
2023-05-02T01:05:01.468Z,100493.38
2023-05-02T01:07:44.850Z,100504.09
2023-05-02T01:10:22.998Z,100500.72
2023-05-02T01:13:00.457Z,100507.75
2023-05-02T01:15:29.653Z,100504.38
2023-05-02T01:18:02.006Z,100508.88
2023-05-02T01:20:31.992Z,100512.28
2023-05-02T01:23:05.568Z,100513.94
2023-05-02T01:25:41.683Z,100529.16
2023-05-02T01:28:22.648Z,100539.88
2023-05-02T01:30:54.886Z,100545.25
2023-05-02T01:33:25.340Z,100550.59
2023-05-02T01:35:54.633Z,100548.91
2023-05-02T01:38:25.413Z,100545.25
2023-05-02T01:40:55.187Z,100549.78
2023-05-02T01:43:24.528Z,100554.28
2023-05-02T01:45:57.484Z,100555.94
2023-05-02T01:48:28.413Z,100560.63
2023-05-02T01:50:57.538Z,100568.38
2023-05-02T01:53:26.997Z,100566.66
2023-05-02T01:55:56.305Z,100572.03
2023-05-02T01:58:26.645Z,100572.03
2023-05-02T02:00:59.819Z,100571.19
2023-05-02T02:03:29.765Z,100581.06
2023-05-02T02:05:59.422Z,100571.19
2023-05-02T02:08:27.721Z,100501.50
2023-05-02T02:11:04.432Z,100579.38
2023-05-02T02:13:38.720Z,100588.09
2023-05-02T02:16:12.621Z,100590.09
2023-05-02T02:18:40.950Z,100590.78
2023-05-02T02:21:13.514Z,100591.78
2023-05-02T02:23:44.605Z,100589.09
2023-05-02T02:26:14.749Z,100597.13
2023-05-02T02:28:42.996Z,100602.47
2023-05-02T02:31:12.604Z,100597.13
2023-05-02T02:33:41.326Z,100611.50
2023-05-02T02:36:15.513Z,100607.84
2023-05-02T02:38:49.592Z,100607.84
2023-05-02T02:41:25.484Z,100600.81
2023-05-02T02:44:02.734Z,100597.81
2023-05-02T02:46:48.600Z,100607.25
2023-05-02T02:49:28.330Z,100612.63
2023-05-02T02:52:04.036Z,100616.00
2023-05-02T02:54:37.086Z,100622.22
2023-05-02T02:57:11.660Z,100630.25
2023-05-02T02:59:48.472Z,100627.59
2023-05-02T03:02:20.675Z,100627.84
2023-05-02T03:04:51.353Z,100633.91
2023-05-02T03:07:19.394Z,100638.28
2023-05-02T03:09:48.603Z,100644.63
2023-05-02T03:12:16.626Z,100641.94
2023-05-02T03:14:44.977Z,100641.94
2023-05-02T03:17:13.091Z,100647.28
2023-05-02T03:19:42.529Z,100649.00
2023-05-02T03:22:10.535Z,100644.75
2023-05-02T03:24:38.584Z,100651.69
2023-05-02T03:27:06.956Z,100659.72
2023-05-02T03:29:35.034Z,100665.91
2023-05-02T03:32:03.263Z,100665.09
2023-05-02T03:34:31.431Z,100669.44
2023-05-02T03:37:00.865Z,100671.25
2023-05-02T03:39:28.877Z,100677.47
2023-05-02T03:41:56.991Z,100675.78
2023-05-02T03:44:25.089Z,100678.47
2023-05-02T03:46:53.218Z,100679.44
2023-05-02T03:49:21.994Z,100684.78
2023-05-02T03:51:50.059Z,100682.84
2023-05-02T03:54:19.938Z,100682.84
2023-05-02T03:56:48.040Z,100697.91
2023-05-02T03:59:16.480Z,100696.94
2023-05-02T04:01:44.588Z,100703.13
2023-05-02T04:04:12.699Z,100707.66
2023-05-02T04:06:40.974Z,100713.03
2023-05-02T04:09:09.132Z,100710.34
2023-05-02T04:11:38.607Z,100722.03
2023-05-02T04:14:06.689Z,100713.97
2023-05-02T04:16:34.821Z,100718.66
2023-05-02T04:19:02.857Z,100719.47
2023-05-02T04:21:31.718Z,100729.38
2023-05-02T04:24:00.218Z,100725.22
2023-05-02T04:26:28.240Z,100740.06
2023-05-02T04:28:57.702Z,100739.22
2023-05-02T04:31:25.955Z,100740.06
2023-05-02T04:33:54.081Z,100746.25
2023-05-02T04:36:22.286Z,100742.75
2023-05-02T04:38:50.327Z,100756.84
2023-05-02T04:41:18.424Z,100757.84
2023-05-02T04:43:46.487Z,100773.91
2023-05-02T04:46:17.880Z,100768.53
2023-05-02T04:48:45.985Z,100773.91
2023-05-02T04:51:16.838Z,100763.72
2023-05-02T04:53:45.177Z,100778.66
2023-05-02T04:56:14.147Z,100788.28
2023-05-02T04:58:42.197Z,100799.00
2023-05-02T05:01:10.569Z,100793.66
2023-05-02T05:03:40.202Z,100795.59
2023-05-02T05:06:08.292Z,100795.59
2023-05-02T05:08:36.544Z,100800.69
2023-05-02T05:11:05.220Z,100806.03
2023-05-02T05:13:33.356Z,100809.72
2023-05-02T05:16:02.235Z,100815.06
2023-05-02T05:18:30.406Z,100823.25
2023-05-02T05:20:59.993Z,100828.47
2023-05-02T05:23:28.552Z,100831.16
2023-05-02T05:25:56.629Z,100829.44
2023-05-02T05:28:24.772Z,100829.44
2023-05-02T05:30:52.979Z,100827.16
2023-05-02T05:33:21.174Z,100833.97
2023-05-02T05:35:49.323Z,100840.13
2023-05-02T05:38:18.801Z,100835.63
2023-05-02T05:40:50.368Z,100841.84
2023-05-02T05:43:18.511Z,100847.22
2023-05-02T05:45:46.626Z,100841.84
2023-05-02T05:48:14.718Z,100847.22
2023-05-02T05:50:42.989Z,100846.34
2023-05-02T05:53:11.130Z,100855.25
2023-05-02T05:55:42.350Z,100857.94
2023-05-02T05:58:10.673Z,100864.97
2023-05-02T06:00:40.058Z,100869.47
2023-05-02T06:03:09.729Z,100868.66
2023-05-02T06:05:38.194Z,100882.03
2023-05-02T06:08:06.408Z,100881.19
2023-05-02T06:10:34.598Z,100874.97
2023-05-02T06:13:04.084Z,100873.66
2023-05-02T06:15:34.779Z,100880.00
2023-05-02T06:18:03.188Z,100900.78
2023-05-02T06:20:31.383Z,100897.25
2023-05-02T06:22:59.451Z,100909.78
2023-05-02T06:25:27.542Z,100909.78
2023-05-02T06:27:55.626Z,100931.22
2023-05-02T06:30:25.131Z,100918.94
2023-05-02T06:32:53.202Z,100921.63
2023-05-02T06:35:21.288Z,100935.59
2023-05-02T06:37:49.334Z,100943.66
2023-05-02T06:40:17.686Z,100942.78
2023-05-02T06:42:45.748Z,100952.63
2023-05-02T06:45:13.838Z,100952.63
2023-05-02T06:47:43.398Z,100960.69
2023-05-02T06:50:12.700Z,100963.34
2023-05-02T06:52:40.768Z,100948.78
2023-05-02T06:55:09.643Z,100968.72
2023-05-02T06:57:37.760Z,100976.63
2023-05-02T07:00:06.795Z,100971.25
2023-05-02T07:02:34.970Z,100979.16
2023-05-02T07:05:04.729Z,100983.69
2023-05-02T07:07:32.755Z,100981.97
2023-05-02T07:10:01.074Z,100988.19
2023-05-02T07:12:29.382Z,100992.69
2023-05-02T07:14:57.396Z,100997.22
2023-05-02T07:17:25.606Z,101002.56
2023-05-02T07:19:53.823Z,101007.94
2023-05-02T07:22:23.668Z,101002.56
2023-05-02T07:24:59.121Z,101007.94
2023-05-02T07:27:27.176Z,100990.66
2023-05-02T07:29:55.272Z,101007.94
2023-05-02T07:32:24.925Z,101022.28
2023-05-02T07:34:54.242Z,101016.94
2023-05-02T07:37:24.065Z,101017.19
2023-05-02T07:39:52.250Z,101027.63
2023-05-02T07:42:20.393Z,101038.34
2023-05-02T07:44:48.496Z,101043.72
2023-05-02T07:47:16.749Z,101049.06
2023-05-02T07:49:45.054Z,101049.06
2023-05-02T07:52:13.131Z,101051.75
2023-05-02T07:54:42.630Z,101047.03
2023-05-02T07:57:10.721Z,101047.38
2023-05-02T07:59:38.816Z,101058.94
2023-05-02T08:02:06.936Z,101065.13
2023-05-02T08:04:35.310Z,101059.78
2023-05-02T08:07:03.493Z,101071.50
2023-05-02T08:09:31.582Z,101072.22
2023-05-02T08:12:03.322Z,101076.72
2023-05-02T08:14:31.688Z,101081.22
2023-05-02T08:17:00.575Z,101086.56
2023-05-02T08:19:28.762Z,101086.56
2023-05-02T08:21:56.887Z,101091.94
2023-05-02T08:24:25.074Z,101094.59
2023-05-02T08:26:53.145Z,101095.59
2023-05-02T08:29:22.687Z,101088.53
2023-05-02T08:31:51.053Z,101105.31
2023-05-02T08:34:19.247Z,101106.31
2023-05-02T08:36:48.324Z,101098.41
2023-05-02T08:39:17.154Z,101118.72
2023-05-02T08:41:45.883Z,101114.22
2023-05-02T08:44:14.117Z,101118.72
2023-05-02T08:46:44.568Z,101113.34
2023-05-02T08:49:13.006Z,101118.00
2023-05-02T08:51:42.377Z,101124.06
2023-05-02T08:54:11.130Z,101118.72
2023-05-02T08:56:39.482Z,101124.06
2023-05-02T08:59:08.263Z,101132.97
2023-05-02T09:01:37.434Z,101145.50
2023-05-02T09:04:07.483Z,101141.88
2023-05-02T09:06:36.358Z,101134.78
2023-05-02T09:09:04.601Z,101152.59
2023-05-02T09:11:32.744Z,101134.44
2023-05-02T09:14:04.191Z,101154.41
2023-05-02T09:16:40.483Z,101153.53
2023-05-02T09:19:10.740Z,101163.31
2023-05-02T09:21:40.511Z,101166.94
2023-05-02T09:24:19.009Z,101178.50
2023-05-02T09:26:59.022Z,101179.38
2023-05-02T09:29:29.348Z,101172.53
2023-05-02T09:31:58.088Z,101175.09
2023-05-02T09:34:27.585Z,101188.38
2023-05-02T09:36:55.667Z,101184.97
2023-05-02T09:39:26.254Z,101184.97
2023-05-02T09:41:55.216Z,101176.81
2023-05-02T09:44:24.672Z,101199.06
2023-05-02T09:46:56.380Z,101184.47
2023-05-02T09:52:19.902Z,101209.78
2023-05-02T09:54:50.783Z,101205.28
2023-05-02T09:57:18.961Z,101206.16
2023-05-02T09:59:56.821Z,101216.00
2023-05-02T10:02:26.126Z,101215.16
2023-05-02T10:04:55.390Z,101215.16
2023-05-02T10:07:26.422Z,101215.16
2023-05-02T10:09:59.321Z,101220.50
2023-05-02T10:12:30.691Z,101225.88
2023-05-02T10:15:04.538Z,101231.22
2023-05-02T10:17:37.154Z,101231.47
2023-05-02T10:20:07.447Z,101233.19
2023-05-02T10:22:37.459Z,101241.09
2023-05-02T10:25:06.312Z,101240.25
2023-05-02T10:27:34.912Z,101241.34
2023-05-02T10:30:04.480Z,101244.63
2023-05-02T10:32:34.739Z,101258.00
2023-05-02T10:35:05.386Z,101254.38
2023-05-02T10:37:38.426Z,101258.00
2023-05-02T10:40:11.213Z,101258.00
2023-05-02T10:42:41.127Z,101272.28
2023-05-02T10:45:14.644Z,101267.91
2023-05-02T10:47:42.888Z,101267.91
2023-05-02T10:50:11.584Z,101270.69
2023-05-02T10:52:41.586Z,101278.59
2023-05-02T10:55:17.989Z,101268.72
2023-05-02T10:58:23.746Z,101279.44
2023-05-02T11:00:51.869Z,101272.38
2023-05-02T11:03:58.399Z,101282.25
2023-05-02T11:06:28.303Z,101286.78
2023-05-02T11:09:37.069Z,101288.47
2023-05-02T11:12:05.982Z,101289.44
2023-05-02T11:14:50.929Z,101294.81
2023-05-02T11:17:21.231Z,101291.25
2023-05-02T11:20:26.631Z,101307.34
2023-05-02T11:22:56.630Z,101306.47
2023-05-02T11:25:33.860Z,101311.00
2023-05-02T11:28:02.708Z,101311.00
2023-05-02T11:30:39.575Z,101322.53
2023-05-02T11:33:17.816Z,101317.19
2023-05-02T11:35:46.950Z,101313.56
2023-05-02T11:38:17.233Z,101301.13
2023-05-02T11:40:55.334Z,101311.81
2023-05-02T11:43:25.253Z,101324.28
2023-05-02T11:45:54.192Z,101319.75
2023-05-02T11:48:24.231Z,101312.81
2023-05-02T11:50:54.006Z,101318.91
2023-05-02T11:53:24.312Z,101325.09
2023-05-02T11:55:55.631Z,101324.28
2023-05-02T11:58:25.179Z,101340.34
2023-05-02T12:00:54.582Z,101344.72
2023-05-02T12:03:24.135Z,101349.09
2023-05-02T12:05:52.900Z,101349.09
2023-05-02T12:08:22.848Z,101347.41
2023-05-02T12:10:52.831Z,101322.28
2023-05-02T12:13:24.186Z,101364.34
2023-05-02T12:15:54.447Z,101361.53
2023-05-02T12:18:24.743Z,101356.19
2023-05-02T12:20:53.837Z,101370.53
2023-05-02T12:23:23.469Z,101375.88
2023-05-02T12:25:51.633Z,101381.25
2023-05-02T12:28:20.682Z,101379.53
2023-05-02T12:30:51.540Z,101386.59
2023-05-02T12:33:20.290Z,101384.91
2023-05-02T12:35:49.034Z,101384.91
2023-05-02T12:38:18.787Z,101388.69
2023-05-02T12:40:52.199Z,101380.41
2023-05-02T12:43:20.397Z,101391.13
2023-05-02T12:45:50.041Z,101397.31
2023-05-02T12:48:30.501Z,101402.66
2023-05-02T12:50:58.776Z,101399.03
2023-05-02T12:53:45.999Z,101393.91
2023-05-02T12:56:14.179Z,101404.53
2023-05-02T12:58:44.137Z,101405.47
2023-05-02T13:01:14.316Z,101392.81
2023-05-02T13:03:43.183Z,101397.31
2023-05-02T13:06:11.725Z,101412.56
2023-05-02T13:08:39.846Z,101405.47
2023-05-02T13:11:07.947Z,101401.97
2023-05-02T13:13:36.405Z,101413.38
2023-05-02T13:16:05.246Z,101405.59
2023-05-02T13:18:34.846Z,101406.34
2023-05-02T13:21:03.046Z,101402.66
2023-05-02T13:23:31.103Z,101414.25
2023-05-02T13:25:59.249Z,101417.03
2023-05-02T13:28:27.865Z,101415.13
2023-05-02T13:30:55.995Z,101420.47
2023-05-02T13:33:24.058Z,101421.41
2023-05-02T13:35:53.547Z,101420.47
2023-05-02T13:38:21.686Z,101420.47
2023-05-02T13:40:49.801Z,101418.03
2023-05-02T13:43:17.979Z,101410.22
2023-05-02T13:45:47.517Z,101417.91
2023-05-02T13:48:16.384Z,101423.38
2023-05-02T13:50:44.685Z,101426.06
2023-05-02T13:53:14.099Z,101424.09
2023-05-02T13:55:42.260Z,101415.34
2023-05-02T13:58:10.336Z,101428.63
2023-05-02T14:00:39.064Z,101424.09
2023-05-02T14:03:07.270Z,101426.78
2023-05-02T14:05:36.592Z,101439.34
2023-05-02T14:08:04.735Z,101424.97
2023-05-02T14:10:36.509Z,101447.50
2023-05-02T14:13:04.729Z,101441.91
2023-05-02T14:15:32.863Z,101439.22
2023-05-02T14:18:01.047Z,101440.19
2023-05-02T14:20:29.493Z,101433.13
2023-05-02T14:22:57.561Z,101432.25
2023-05-02T14:25:25.676Z,101434.81
2023-05-02T14:27:55.394Z,101436.53
2023-05-02T14:30:23.484Z,101441.91
2023-05-02T14:32:52.282Z,101436.53
2023-05-02T14:35:20.894Z,101457.13
2023-05-02T14:37:49.125Z,101452.63
2023-05-02T14:40:17.795Z,101450.78
2023-05-02T14:42:45.958Z,101459.91
2023-05-02T14:45:15.634Z,101467.84
2023-05-02T14:47:43.722Z,101463.34
2023-05-02T14:50:12.376Z,101466.97
2023-05-02T14:52:40.875Z,101463.34
2023-05-02T14:55:09.745Z,101474.06
2023-05-02T14:57:38.003Z,101474.06
2023-05-02T15:00:08.142Z,101469.75
2023-05-02T15:02:38.350Z,101454.78
2023-05-02T15:05:12.131Z,101430.25
2023-05-02T15:07:40.550Z,101460.16
2023-05-02T15:10:10.502Z,101461.13
2023-05-02T15:12:38.707Z,101461.84
2023-05-02T15:15:09.183Z,101468.06
2023-05-02T15:17:39.386Z,101456.47
2023-05-02T15:20:08.686Z,101463.56
2023-05-02T15:22:36.908Z,101468.69
2023-05-02T15:25:05.778Z,101463.34
2023-05-02T15:27:33.828Z,101463.34
2023-05-02T15:30:03.311Z,101457.97
2023-05-02T15:32:31.768Z,101474.06
2023-05-02T15:35:01.654Z,101457.97
2023-05-02T15:37:29.762Z,101477.44
2023-05-02T15:39:58.007Z,101461.38
2023-05-02T15:42:26.480Z,101461.59
2023-05-02T15:44:54.904Z,101459.69
2023-05-02T15:47:23.339Z,101465.03
2023-05-02T15:49:53.963Z,101467.72
2023-05-02T15:52:23.593Z,101458.69
2023-05-02T15:54:51.990Z,101454.31
2023-05-02T15:57:21.342Z,101453.47
2023-05-02T15:59:49.434Z,101457.97
2023-05-02T16:02:17.545Z,101470.41
2023-05-02T16:04:46.595Z,101466.72
2023-05-02T16:07:14.865Z,101461.59
2023-05-02T16:09:44.350Z,101472.09
2023-05-02T16:12:12.482Z,101459.69
2023-05-02T16:14:40.674Z,101461.59
2023-05-02T16:17:08.777Z,101464.16
2023-05-02T16:19:36.876Z,101466.72
2023-05-02T16:22:05.000Z,101472.09
2023-05-02T16:24:33.081Z,101465.03
2023-05-02T16:27:02.778Z,101466.72
2023-05-02T16:29:30.911Z,101464.16
2023-05-02T16:31:59.820Z,101470.41
2023-05-02T16:34:28.147Z,101475.75
2023-05-02T16:36:56.546Z,101477.44
2023-05-02T16:39:24.745Z,101477.44
2023-05-02T16:41:52.832Z,101481.09
2023-05-02T16:44:22.377Z,101491.81
2023-05-02T16:46:50.826Z,101481.09
2023-05-02T16:49:19.671Z,101486.47
2023-05-02T16:51:51.468Z,101493.53
2023-05-02T16:54:19.805Z,101491.81
2023-05-02T16:56:48.746Z,101488.16
2023-05-02T16:59:17.158Z,101487.34
2023-05-02T17:01:47.210Z,101491.81
2023-05-02T17:04:16.334Z,101491.06
2023-05-02T17:06:44.751Z,101497.19
2023-05-02T17:09:13.770Z,101503.41
2023-05-02T17:11:42.351Z,101502.53
2023-05-02T17:14:10.475Z,101504.25
2023-05-02T17:16:38.589Z,101497.19
2023-05-02T17:19:08.187Z,101492.28
2023-05-02T17:21:36.963Z,101507.91
2023-05-02T17:24:05.373Z,101505.97
2023-05-02T17:26:33.557Z,101498.88
2023-05-02T17:29:01.633Z,101505.97
2023-05-02T17:31:29.906Z,101498.88
2023-05-02T17:33:58.031Z,101498.88
2023-05-02T17:36:27.958Z,101505.97
2023-05-02T17:38:56.236Z,101510.47
2023-05-02T17:41:24.333Z,101509.59
2023-05-02T17:43:52.631Z,101506.19
2023-05-02T17:46:20.786Z,101503.41
2023-05-02T17:48:49.120Z,101502.53
2023-05-02T17:51:17.178Z,101502.53
2023-05-02T17:53:47.315Z,101500.84
2023-05-02T17:56:18.740Z,101513.25
2023-05-02T17:58:47.301Z,101513.25
2023-05-02T18:01:15.744Z,101507.91
2023-05-02T18:03:44.943Z,101509.59
2023-05-02T18:06:16.864Z,101502.53
2023-05-02T18:08:47.043Z,101506.09
2023-05-02T18:11:16.372Z,101504.25
2023-05-02T18:13:45.177Z,101507.91
2023-05-02T18:16:14.887Z,101503.41
2023-05-02T18:18:43.264Z,101507.16
2023-05-02T18:21:11.720Z,101513.25
2023-05-02T18:23:40.189Z,101509.59
2023-05-02T18:26:14.690Z,101507.03
2023-05-02T18:28:44.460Z,101480.56
2023-05-02T18:31:17.761Z,101513.25
2023-05-02T18:33:46.929Z,101491.06
2023-05-02T18:36:15.938Z,101515.94
2023-05-02T18:38:44.017Z,101506.19
2023-05-02T18:41:13.492Z,101463.69
2023-05-02T18:43:41.551Z,101507.91
2023-05-02T18:46:11.973Z,101480.03
2023-05-02T18:48:40.071Z,101515.94
2023-05-02T18:51:08.453Z,101490.19
2023-05-02T18:53:36.532Z,101523.00
2023-05-02T18:56:04.848Z,101520.31
2023-05-02T18:58:34.334Z,101516.69
2023-05-02T19:01:02.445Z,101514.97
2023-05-02T19:03:30.827Z,101514.97
2023-05-02T19:05:58.925Z,101517.97
2023-05-02T19:08:27.240Z,101504.69
2023-05-02T19:10:55.260Z,101517.75
2023-05-02T19:13:23.319Z,101489.78
2023-05-02T19:15:52.813Z,101527.63
2023-05-02T19:18:23.809Z,101518.63
2023-05-02T19:20:52.568Z,101489.78
2023-05-02T19:23:21.137Z,101511.78
2023-05-02T19:25:49.503Z,101363.78
2023-05-02T19:28:17.828Z,101517.16
2023-05-02T19:30:46.090Z,101516.91
2023-05-02T19:33:15.591Z,101515.19
2023-05-02T19:35:43.636Z,101520.53
2023-05-02T19:38:11.633Z,101520.53
2023-05-02T19:40:39.681Z,101520.53
2023-05-02T19:43:07.761Z,101448.81
2023-05-02T19:45:35.881Z,101508.59
2023-05-02T19:48:04.023Z,101520.53
2023-05-02T19:50:34.448Z,101524.09
2023-05-02T19:53:04.550Z,101520.53
2023-05-02T19:55:32.664Z,101517.88
2023-05-02T19:58:01.905Z,101527.63
2023-05-02T20:00:30.013Z,101531.25
2023-05-02T20:02:58.360Z,101519.06
2023-05-02T20:05:27.048Z,101519.31
2023-05-02T20:07:56.526Z,101460.00
2023-05-02T20:10:24.760Z,101525.69
2023-05-02T20:12:52.851Z,101528.34
2023-05-02T20:15:21.693Z,101496.63
2023-05-02T20:17:52.746Z,101529.34
2023-05-02T20:20:21.044Z,101529.34
2023-05-02T20:22:49.184Z,101506.91
2023-05-02T20:25:18.794Z,101527.63
2023-05-02T20:27:46.998Z,101524.44
2023-05-02T20:30:15.471Z,101516.41
2023-05-02T20:32:44.238Z,101439.47
2023-05-02T20:35:12.368Z,101531.16
2023-05-02T20:37:40.440Z,101513.72
2023-05-02T20:40:10.076Z,101522.50
2023-05-02T20:42:41.673Z,101523.22
2023-05-02T20:45:14.057Z,101536.63
2023-05-02T20:47:42.405Z,101450.31
2023-05-02T20:50:11.012Z,101546.50
2023-05-02T20:52:39.612Z,101536.63
2023-05-02T20:55:08.469Z,101536.63
2023-05-02T20:57:36.818Z,101541.97
2023-05-02T21:00:11.456Z,101547.34
2023-05-02T21:02:39.672Z,101512.72
2023-05-02T21:05:08.341Z,101536.63
2023-05-02T21:07:36.727Z,101541.03
2023-05-02T21:10:06.323Z,101442.13
2023-05-02T21:12:34.694Z,101518.19
2023-05-02T21:15:02.905Z,101549.06
2023-05-02T21:17:33.596Z,101546.38
2023-05-02T21:20:02.013Z,101546.38
2023-05-02T21:22:30.347Z,101549.06
2023-05-02T21:24:58.481Z,101543.72
2023-05-02T21:27:26.780Z,101549.06
2023-05-02T21:29:54.978Z,101552.69
2023-05-02T21:32:23.202Z,101554.44
2023-05-02T21:34:52.708Z,101554.66
2023-05-02T21:37:20.836Z,101554.44
2023-05-02T21:39:48.902Z,101536.47
2023-05-02T21:42:17.067Z,101551.75
2023-05-02T21:44:45.176Z,101465.78
2023-05-02T21:47:13.663Z,101549.06
2023-05-02T21:49:41.809Z,101474.06
2023-05-02T21:52:11.358Z,101552.69
2023-05-02T21:54:39.722Z,101550.88
2023-05-02T21:57:07.838Z,101551.00
2023-05-02T21:59:35.942Z,101551.00
2023-05-02T22:02:04.142Z,101544.88
2023-05-02T22:04:32.238Z,101544.88
2023-05-02T22:07:00.679Z,101552.69
2023-05-02T22:09:32.878Z,101551.75
2023-05-02T22:12:02.980Z,101467.75
2023-05-02T22:14:41.795Z,101549.06
2023-05-02T22:17:13.738Z,101409.78
2023-05-02T22:19:42.029Z,101551.00
2023-05-02T22:22:10.162Z,101558.06
2023-05-02T22:24:39.764Z,101562.47
2023-05-02T22:27:08.357Z,101546.63
2023-05-02T22:29:36.440Z,101477.19
2023-05-02T22:32:04.534Z,101552.69
2023-05-02T22:34:32.608Z,101550.13
2023-05-02T22:37:00.748Z,101426.19
2023-05-02T22:39:28.901Z,101527.69
2023-05-02T22:41:59.655Z,101534.91
2023-05-02T22:44:27.750Z,101526.00
2023-05-02T22:46:56.626Z,101522.72
2023-05-02T22:49:25.025Z,101459.28
2023-05-02T22:51:57.961Z,101510.75
2023-05-02T22:54:26.141Z,101449.25
2023-05-02T22:56:54.829Z,101532.25
2023-05-02T22:59:24.554Z,101530.44
2023-05-02T23:01:52.767Z,101509.50
2023-05-02T23:04:21.378Z,101449.94
2023-05-02T23:06:49.606Z,101542.97
2023-05-02T23:09:17.971Z,101514.63
2023-05-02T23:11:46.189Z,101536.63
2023-05-02T23:14:15.237Z,101531.72
2023-05-02T23:16:45.141Z,101541.97
2023-05-02T23:19:13.618Z,101542.97
2023-05-02T23:21:42.160Z,101539.41
2023-05-02T23:24:11.289Z,101547.56
2023-05-02T23:26:39.438Z,101548.31
2023-05-02T23:29:07.539Z,101543.94
2023-05-02T23:31:35.752Z,101546.50
2023-05-02T23:34:06.088Z,101545.63
2023-05-02T23:36:34.712Z,101546.50
2023-05-02T23:39:02.981Z,101540.28
2023-05-02T23:41:31.627Z,101535.91
2023-05-02T23:43:59.809Z,101545.63
2023-05-02T23:46:28.171Z,101530.47
2023-05-02T23:48:56.374Z,101472.81
2023-05-02T23:51:25.964Z,101551.97
2023-05-02T23:53:54.096Z,101555.47
2023-05-02T23:56:22.206Z,101554.66
2023-05-02T23:58:50.257Z,101528.78
